METAR Data
IDs: Format: Raw Decoded Include TAF

Data at: 0749 UTC 01 Aug 2021

EHAM 010725Z 21009KT 180V240 9999 FEW008 SCT015 FEW018CB 18/16 Q1007 TEMPO 5000 SHRA BECMG 28010KT